Time;durP1;ratioP1;P1;durP2;ratioP2;P2;SDS_P1;SDS_P2;PMS_P1;PMS_P2;Temp;Humidity;BMP_temperature;BMP_pressure;BME280_temperature;BME280_humidity;BME280_pressure;Samples;Min_cycle;Max_cycle;Signal;HPM_P1;HPM_P2
2023/12/13 00:02:01;;;;;;;13.52;7.53;;;8.90;99.90;;;;;;5093079;28;20466;-71
2023/12/13 00:04:27;;;;;;;14.70;7.18;;;8.90;99.90;;;;;;5093105;28;20128;-71
2023/12/13 00:06:52;;;;;;;13.82;6.80;;;8.80;99.90;;;;;;5093196;28;20436;-71
2023/12/13 00:09:18;;;;;;;11.90;5.95;;;8.80;99.90;;;;;;5093340;28;20032;-71
2023/12/13 00:11:43;;;;;;;12.07;5.68;;;8.80;99.90;;;;;;5093143;28;20470;-71
2023/12/13 00:14:09;;;;;;;7.75;5.50;;;8.80;99.90;;;;;;5092956;28;20390;-71
2023/12/13 00:16:38;;;;;;;9.35;5.50;;;8.70;99.90;;;;;;5093148;28;20113;-71
2023/12/13 00:19:04;;;;;;;12.45;5.28;;;8.80;99.90;;;;;;5093043;28;20024;-71
2023/12/13 00:21:30;;;;;;;8.25;5.40;;;8.80;99.90;;;;;;5093041;28;20066;-71
2023/12/13 00:23:56;;;;;;;13.85;5.03;;;8.80;99.90;;;;;;5093121;28;20028;-71
2023/12/13 00:26:23;;;;;;;11.32;5.35;;;8.70;99.90;;;;;;5092857;28;20103;-71
2023/12/13 00:28:50;;;;;;;12.07;6.50;;;8.80;99.90;;;;;;5093107;28;20474;-71
2023/12/13 00:31:16;;;;;;;8.90;4.93;;;8.90;99.90;;;;;;5093153;28;20137;-71
2023/12/13 00:33:42;;;;;;;12.30;4.95;;;8.70;99.90;;;;;;5092917;28;20056;-71
2023/12/13 00:36:08;;;;;;;10.32;4.13;;;8.60;99.90;;;;;;5092839;28;20024;-71
2023/12/13 00:38:34;;;;;;;9.75;4.47;;;8.80;99.90;;;;;;5096549;28;20032;-71
2023/12/13 00:40:59;;;;;;;7.13;4.18;;;8.80;99.90;;;;;;5097008;28;20070;-71
2023/12/13 00:43:26;;;;;;;9.55;4.43;;;8.80;99.90;;;;;;5096951;28;20020;-71
2023/12/13 00:45:51;;;;;;;10.55;4.20;;;8.80;99.90;;;;;;5096796;28;20385;-71
2023/12/13 00:48:17;;;;;;;14.02;3.80;;;8.80;99.90;;;;;;5096421;28;20099;-71
2023/12/13 00:50:43;;;;;;;7.82;3.70;;;8.80;99.90;;;;;;5096688;28;20028;-70
2023/12/13 00:53:08;;;;;;;9.10;3.45;;;8.80;99.90;;;;;;5096277;28;20024;-70
2023/12/13 00:55:34;;;;;;;7.65;3.45;;;8.80;99.90;;;;;;5096473;28;20413;-71
2023/12/13 00:57:59;;;;;;;8.60;3.60;;;8.70;99.90;;;;;;5096678;28;20507;-70
2023/12/13 01:00:25;;;;;;;7.18;3.30;;;8.70;99.90;;;;;;5096443;28;20101;-70
2023/12/13 01:02:51;;;;;;;6.78;3.38;;;8.70;99.90;;;;;;5096426;28;20077;-71
2023/12/13 01:05:16;;;;;;;7.75;4.13;;;8.70;99.90;;;;;;5096454;28;20036;-72
2023/12/13 01:07:42;;;;;;;7.38;3.67;;;8.70;99.90;;;;;;5096171;28;20481;-72
2023/12/13 01:10:08;;;;;;;7.28;3.30;;;8.60;99.90;;;;;;5096189;28;20108;-72
2023/12/13 01:12:33;;;;;;;5.93;3.47;;;8.70;99.90;;;;;;5096418;28;20056;-72
2023/12/13 01:14:59;;;;;;;7.28;3.28;;;8.60;99.90;;;;;;5096338;28;20020;-72
2023/12/13 01:17:24;;;;;;;4.85;2.92;;;8.60;99.90;;;;;;5096252;28;20024;-71
2023/12/13 01:19:52;;;;;;;4.18;2.60;;;8.60;99.90;;;;;;5096089;28;20028;-71
2023/12/13 01:22:19;;;;;;;5.35;2.88;;;8.60;99.90;;;;;;5095949;28;20047;-72
2023/12/13 01:24:44;;;;;;;4.50;2.45;;;8.60;99.90;;;;;;5096055;28;20031;-71
2023/12/13 01:27:10;;;;;;;5.20;2.25;;;8.60;99.90;;;;;;5095871;28;20473;-72
2023/12/13 01:29:35;;;;;;;2.58;1.65;;;8.60;99.90;;;;;;5096076;28;20052;-71
2023/12/13 01:32:01;;;;;;;5.00;2.33;;;8.50;99.90;;;;;;5095920;28;20474;-71
2023/12/13 01:34:26;;;;;;;7.90;2.40;;;8.60;99.90;;;;;;5095870;28;20020;-71
2023/12/13 01:36:52;;;;;;;7.13;2.30;;;8.50;99.90;;;;;;5095460;28;20054;-72
2023/12/13 01:39:17;;;;;;;3.42;2.08;;;8.50;99.90;;;;;;5095709;28;20036;-72
2023/12/13 01:41:43;;;;;;;6.18;2.47;;;8.50;99.90;;;;;;5095828;28;20031;-71
2023/12/13 01:44:10;;;;;;;4.20;1.80;;;8.40;99.90;;;;;;5095506;28;20501;-72
2023/12/13 01:46:36;;;;;;;4.78;2.55;;;8.30;99.90;;;;;;5095487;28;20114;-72
2023/12/13 01:49:05;;;;;;;4.30;2.30;;;8.30;99.90;;;;;;5094957;28;20030;-71
2023/12/13 01:51:32;;;;;;;4.55;2.30;;;8.20;99.90;;;;;;5095664;28;20023;-71
2023/12/13 01:53:58;;;;;;;5.43;2.03;;;8.20;99.90;;;;;;5095493;28;20496;-71
2023/12/13 01:56:23;;;;;;;4.95;2.50;;;8.10;99.90;;;;;;5095456;28;20028;-72
2023/12/13 01:58:49;;;;;;;5.25;2.50;;;8.10;99.90;;;;;;5095301;28;20052;-72
2023/12/13 02:01:15;;;;;;;6.10;2.70;;;8.00;99.90;;;;;;5095191;28;20035;-71
2023/12/13 02:03:40;;;;;;;6.35;2.92;;;8.00;99.90;;;;;;5095327;28;20020;-71
2023/12/13 02:06:06;;;;;;;6.03;2.75;;;7.90;99.90;;;;;;5095059;28;20024;-71
2023/12/13 02:08:33;;;;;;;5.57;3.08;;;7.80;99.90;;;;;;5095053;28;20055;-72
2023/12/13 02:10:59;;;;;;;7.93;2.70;;;7.80;99.90;;;;;;5095220;28;20473;-72
2023/12/13 02:13:25;;;;;;;11.02;3.40;;;7.80;99.90;;;;;;5095251;28;20028;-72
2023/12/13 02:15:51;;;;;;;7.45;3.13;;;7.70;99.90;;;;;;5095068;28;20039;-71
2023/12/13 02:18:17;;;;;;;10.52;3.83;;;7.60;99.90;;;;;;5095038;28;20024;-72
2023/12/13 02:20:43;;;;;;;7.18;4.57;;;7.60;99.90;;;;;;5094867;28;20027;-71
2023/12/13 02:23:09;;;;;;;11.68;4.80;;;7.50;99.90;;;;;;5094729;28;20478;-71
2023/12/13 02:25:42;;;;;;;9.68;4.75;;;7.60;99.90;;;;;;5094762;28;20052;-72
2023/12/13 02:28:08;;;;;;;10.90;5.43;;;7.60;99.90;;;;;;5094598;28;20024;-71
2023/12/13 02:30:34;;;;;;;11.25;5.65;;;7.60;99.90;;;;;;5094561;28;20545;-71
2023/12/13 02:33:00;;;;;;;15.63;6.18;;;7.60;99.90;;;;;;5094623;28;20108;-71
2023/12/13 02:35:25;;;;;;;13.25;6.63;;;7.70;99.90;;;;;;5094835;28;20111;-71
2023/12/13 02:37:51;;;;;;;12.15;6.47;;;7.70;99.90;;;;;;5094448;28;20109;-71
2023/12/13 02:40:17;;;;;;;12.35;6.93;;;7.70;99.90;;;;;;5094642;28;20453;-71
2023/12/13 02:42:43;;;;;;;16.73;7.28;;;7.70;99.90;;;;;;5094592;28;20390;-71
2023/12/13 02:45:11;;;;;;;20.80;7.45;;;7.70;99.90;;;;;;5094555;28;20024;-71
2023/12/13 02:47:41;;;;;;;15.82;6.68;;;7.80;99.90;;;;;;5094213;28;20032;-71
2023/12/13 02:50:07;;;;;;;15.05;5.80;;;7.80;99.90;;;;;;5094500;28;20495;-71
2023/12/13 02:52:33;;;;;;;14.02;5.07;;;7.80;99.90;;;;;;5094416;28;20028;-72
2023/12/13 02:54:59;;;;;;;11.32;4.85;;;7.80;99.90;;;;;;5094276;28;20077;-71
2023/12/13 02:57:24;;;;;;;11.43;4.88;;;7.80;99.90;;;;;;5094261;28;20028;-72
2023/12/13 02:59:50;;;;;;;12.60;5.22;;;7.80;99.90;;;;;;5093255;28;20024;-71
2023/12/13 03:02:15;;;;;;;9.85;5.07;;;7.80;99.90;;;;;;5093822;28;20020;-71
2023/12/13 03:04:41;;;;;;;17.63;6.57;;;7.80;99.90;;;;;;5094000;28;20042;-71
2023/12/13 03:07:06;;;;;;;19.00;5.95;;;7.80;99.90;;;;;;5094037;28;20424;-71
2023/12/13 03:09:32;;;;;;;14.20;4.70;;;7.80;99.90;;;;;;5094189;28;20021;-71
2023/12/13 03:11:57;;;;;;;9.68;4.68;;;7.80;99.90;;;;;;5094091;28;20032;-72
2023/12/13 03:14:25;;;;;;;13.05;5.43;;;7.80;99.90;;;;;;5093787;28;20362;-71
2023/12/13 03:16:51;;;;;;;11.93;5.10;;;7.90;99.90;;;;;;5093983;28;20028;-71
2023/12/13 03:19:16;;;;;;;7.15;4.47;;;7.80;99.90;;;;;;5093895;28;20374;-71
2023/12/13 03:21:42;;;;;;;13.05;4.85;;;7.90;99.90;;;;;;5093906;28;20068;-71
2023/12/13 03:24:07;;;;;;;13.48;4.88;;;7.90;99.90;;;;;;5093461;28;20059;-71
2023/12/13 03:26:33;;;;;;;13.38;5.22;;;7.90;99.90;;;;;;5093640;28;20036;-71
2023/12/13 03:28:58;;;;;;;12.07;4.47;;;7.90;99.90;;;;;;5093935;28;20028;-72
2023/12/13 03:31:24;;;;;;;10.77;4.70;;;7.90;99.90;;;;;;5093689;28;20146;-72
2023/12/13 03:33:49;;;;;;;14.65;5.93;;;7.80;99.90;;;;;;5093473;28;20393;-71
2023/12/13 03:36:16;;;;;;;10.88;4.88;;;7.90;99.90;;;;;;5093444;28;20031;-71
2023/12/13 03:38:44;;;;;;;10.57;4.82;;;7.90;99.90;;;;;;5093309;28;20027;-71
2023/12/13 03:41:09;;;;;;;14.73;4.85;;;8.00;99.90;;;;;;5093639;28;20492;-72
2023/12/13 03:43:35;;;;;;;11.30;4.65;;;8.00;99.90;;;;;;5093502;28;20047;-72
2023/12/13 03:46:01;;;;;;;10.68;4.05;;;8.00;99.90;;;;;;5093602;28;20021;-71
2023/12/13 03:48:26;;;;;;;10.23;4.55;;;8.00;99.90;;;;;;5093318;28;20024;-72
2023/12/13 03:50:52;;;;;;;10.27;4.20;;;8.00;99.90;;;;;;5093281;28;20024;-72
2023/12/13 03:53:17;;;;;;;13.73;5.13;;;8.10;99.90;;;;;;5093136;28;20059;-72
2023/12/13 03:55:43;;;;;;;9.45;4.78;;;8.10;99.90;;;;;;5093306;28;20024;-72
2023/12/13 03:58:08;;;;;;;11.02;4.57;;;8.20;99.90;;;;;;5093464;28;20073;-71
2023/12/13 04:00:34;;;;;;;17.83;4.70;;;8.10;99.90;;;;;;5093340;28;20041;-72
2023/12/13 04:02:59;;;;;;;12.57;4.28;;;8.20;99.90;;;;;;5093457;28;20035;-72
2023/12/13 04:05:26;;;;;;;15.52;4.22;;;8.10;99.90;;;;;;5093178;28;20136;-72
2023/12/13 04:07:51;;;;;;;11.25;4.05;;;8.10;99.90;;;;;;5093118;28;20021;-72
2023/12/13 04:10:18;;;;;;;11.43;4.57;;;8.20;99.90;;;;;;5094024;28;20038;-72
2023/12/13 04:12:44;;;;;;;11.93;4.82;;;8.10;99.90;;;;;;5097475;28;20058;-72
2023/12/13 04:15:09;;;;;;;17.90;5.75;;;8.10;99.90;;;;;;5097366;28;20070;-72
2023/12/13 04:17:35;;;;;;;21.85;7.28;;;8.10;99.90;;;;;;5097332;28;20039;-72
2023/12/13 04:20:00;;;;;;;21.70;8.77;;;8.10;99.90;;;;;;5097370;28;20099;-72
2023/12/13 04:22:26;;;;;;;23.20;9.38;;;8.10;99.90;;;;;;5097062;28;20028;-72
2023/12/13 04:24:51;;;;;;;19.23;9.35;;;8.10;99.90;;;;;;5097159;28;20028;-72
2023/12/13 04:27:17;;;;;;;19.23;9.20;;;8.10;99.90;;;;;;5096937;28;20186;-72
2023/12/13 04:29:43;;;;;;;18.92;9.20;;;8.10;99.90;;;;;;5097174;28;20450;-72
2023/12/13 04:32:09;;;;;;;29.02;9.50;;;8.10;99.90;;;;;;5097128;28;20027;-72
2023/12/13 04:34:35;;;;;;;16.27;8.57;;;8.10;99.90;;;;;;5097133;28;20024;-72
2023/12/13 04:37:00;;;;;;;21.80;8.48;;;8.00;99.90;;;;;;5096780;28;20044;-72
2023/12/13 04:39:26;;;;;;;19.75;8.68;;;8.10;99.90;;;;;;5096732;28;20024;-72
2023/12/13 04:41:51;;;;;;;16.40;8.48;;;8.10;99.90;;;;;;5096723;28;20059;-71
2023/12/13 04:44:17;;;;;;;23.48;8.90;;;8.10;99.90;;;;;;5096823;28;20028;-72
2023/12/13 04:46:42;;;;;;;21.60;9.20;;;8.10;99.90;;;;;;5096556;28;20442;-72
2023/12/13 04:49:08;;;;;;;22.63;9.57;;;8.10;99.90;;;;;;5096793;28;20114;-72
2023/12/13 04:51:34;;;;;;;25.13;9.93;;;8.10;99.90;;;;;;5096760;28;20108;-72
2023/12/13 04:53:59;;;;;;;21.27;8.23;;;8.10;99.90;;;;;;5096737;28;20436;-71
2023/12/13 04:56:25;;;;;;;28.25;10.35;;;8.10;99.90;;;;;;5096640;28;20023;-71
2023/12/13 04:58:50;;;;;;;21.20;9.43;;;8.10;99.90;;;;;;5096551;28;20031;-71
2023/12/13 05:01:16;;;;;;;22.10;8.13;;;8.10;99.90;;;;;;5096512;28;20028;-71
2023/12/13 05:03:42;;;;;;;23.77;8.48;;;8.20;99.90;;;;;;5096554;28;20031;-71
2023/12/13 05:06:07;;;;;;;17.98;8.05;;;8.20;99.90;;;;;;5096453;28;20535;-71
2023/12/13 05:08:33;;;;;;;21.65;8.77;;;8.10;99.90;;;;;;5096207;28;20032;-71
2023/12/13 05:10:59;;;;;;;13.30;7.28;;;8.10;99.90;;;;;;5096489;28;20381;-71
2023/12/13 05:13:26;;;;;;;17.33;7.15;;;8.20;99.90;;;;;;5096021;28;20073;-71
2023/12/13 05:15:52;;;;;;;15.50;6.75;;;8.20;99.90;;;;;;5096060;28;20038;-71
2023/12/13 05:18:17;;;;;;;16.52;7.00;;;8.20;99.90;;;;;;5096193;28;20098;-71
2023/12/13 05:20:43;;;;;;;21.58;8.05;;;8.20;99.90;;;;;;5096051;28;20028;-71
2023/12/13 05:23:08;;;;;;;15.85;7.40;;;8.20;99.90;;;;;;5095279;28;20443;-71
2023/12/13 05:25:34;;;;;;;19.80;7.72;;;8.20;99.90;;;;;;5096242;28;20486;-71
2023/12/13 05:28:00;;;;;;;18.88;7.18;;;8.20;99.90;;;;;;5095783;28;20059;-71
2023/12/13 05:30:25;;;;;;;17.42;7.20;;;8.20;99.90;;;;;;5095356;28;20023;-72
2023/12/13 05:32:51;;;;;;;18.75;7.32;;;8.20;99.90;;;;;;5095894;28;20032;-71
2023/12/13 05:35:17;;;;;;;13.93;6.95;;;8.30;99.90;;;;;;5095568;28;20020;-71
2023/12/13 05:37:42;;;;;;;17.23;7.60;;;8.20;99.90;;;;;;5095432;28;20052;-71
2023/12/13 05:40:08;;;;;;;15.52;6.97;;;8.20;99.90;;;;;;5095867;28;20482;-71
2023/12/13 05:42:34;;;;;;;15.52;6.70;;;8.20;99.90;;;;;;5095784;28;20627;-71
2023/12/13 05:44:59;;;;;;;15.95;7.20;;;8.20;99.90;;;;;;5095605;28;20028;-72
2023/12/13 05:47:25;;;;;;;12.50;6.43;;;8.30;99.90;;;;;;5095376;28;20110;-71
2023/12/13 05:49:51;;;;;;;19.73;6.70;;;8.20;99.90;;;;;;5095636;28;20106;-72
2023/12/13 05:52:18;;;;;;;17.10;7.32;;;8.20;99.90;;;;;;5095262;28;20489;-72
2023/12/13 05:54:43;;;;;;;19.13;7.10;;;8.20;99.90;;;;;;5095376;28;20371;-71
2023/12/13 05:57:10;;;;;;;13.95;6.88;;;8.20;99.90;;;;;;5095461;28;20035;-71
2023/12/13 05:59:36;;;;;;;19.40;8.07;;;8.30;99.90;;;;;;5095545;28;20055;-71
2023/12/13 06:02:01;;;;;;;18.35;7.78;;;8.30;99.90;;;;;;5095287;28;20032;-71
2023/12/13 06:04:27;;;;;;;19.05;8.68;;;8.30;99.90;;;;;;5095117;28;20075;-72
2023/12/13 06:06:53;;;;;;;24.25;10.18;;;8.30;99.90;;;;;;5095084;28;20090;-72
2023/12/13 06:09:18;;;;;;;25.45;10.43;;;8.40;99.90;;;;;;5095142;28;20055;-72
2023/12/13 06:11:44;;;;;;;17.80;9.55;;;8.30;99.90;;;;;;5095184;28;20103;-72
2023/12/13 06:14:09;;;;;;;29.95;12.23;;;8.30;99.90;;;;;;5094775;28;20016;-72
2023/12/13 06:16:35;;;;;;;18.58;10.65;;;8.30;99.90;;;;;;5095112;28;20028;-72
2023/12/13 06:19:00;;;;;;;19.85;10.00;;;8.40;99.90;;;;;;5094882;28;20108;-72
2023/12/13 06:21:26;;;;;;;16.23;7.78;;;8.30;99.90;;;;;;5094915;28;20202;-72
2023/12/13 06:23:52;;;;;;;20.27;8.80;;;8.30;99.90;;;;;;5094444;28;20088;-71
2023/12/13 06:26:17;;;;;;;19.73;9.85;;;8.30;99.90;;;;;;5094642;28;20559;-71
2023/12/13 06:28:43;;;;;;;27.35;8.75;;;8.30;99.90;;;;;;5094672;28;20421;-71
2023/12/13 06:31:09;;;;;;;15.48;7.22;;;8.30;99.90;;;;;;5094617;28;20386;-72
2023/12/13 06:33:34;;;;;;;19.02;6.55;;;8.30;99.90;;;;;;5094723;28;20020;-72
2023/12/13 06:36:00;;;;;;;12.65;6.18;;;8.40;99.90;;;;;;5094739;28;20035;-72
2023/12/13 06:38:25;;;;;;;13.38;6.20;;;8.40;99.90;;;;;;5094240;28;20052;-71
2023/12/13 06:40:51;;;;;;;12.40;5.82;;;8.40;99.90;;;;;;5094560;28;20052;-72
2023/12/13 06:43:17;;;;;;;10.95;5.95;;;8.30;99.90;;;;;;5094358;28;20077;-71
2023/12/13 06:45:42;;;;;;;16.33;5.68;;;8.30;99.90;;;;;;5094383;28;20024;-72
2023/12/13 06:48:08;;;;;;;15.35;5.47;;;8.30;99.90;;;;;;5094348;28;20467;-72
2023/12/13 06:50:34;;;;;;;11.63;5.82;;;8.30;99.90;;;;;;5094460;28;20114;-71
2023/12/13 06:53:00;;;;;;;23.25;6.95;;;8.30;99.90;;;;;;5094266;28;20059;-72
2023/12/13 06:55:26;;;;;;;13.35;5.95;;;8.30;99.90;;;;;;5093809;28;20020;-72
2023/12/13 06:57:51;;;;;;;18.92;7.28;;;8.40;99.90;;;;;;5094243;28;20077;-71
2023/12/13 07:00:21;;;;;;;13.48;6.03;;;8.50;99.90;;;;;;5093906;28;20028;-71
2023/12/13 07:02:47;;;;;;;12.45;5.70;;;8.40;99.90;;;;;;5094142;28;20397;-71
2023/12/13 07:05:12;;;;;;;18.95;5.97;;;8.40;99.90;;;;;;5077754;28;20037;-71
2023/12/13 07:07:38;;;;;;;12.32;5.43;;;8.40;99.90;;;;;;5073653;28;20036;-70
2023/12/13 07:10:04;;;;;;;12.90;5.55;;;8.40;99.90;;;;;;5073944;28;20367;-70
2023/12/13 07:12:29;;;;;;;18.58;6.20;;;8.40;99.90;;;;;;5073945;28;20087;-70
2023/12/13 07:14:56;;;;;;;16.73;6.47;;;8.40;99.90;;;;;;5073654;28;20490;-70
2023/12/13 07:17:22;;;;;;;16.98;6.25;;;8.50;99.90;;;;;;5073476;28;20477;-71
2023/12/13 07:19:48;;;;;;;17.77;6.40;;;8.40;99.90;;;;;;5073297;28;20028;-71
2023/12/13 07:22:14;;;;;;;17.30;5.95;;;8.40;99.90;;;;;;5073207;28;20034;-71
2023/12/13 07:24:39;;;;;;;18.27;6.43;;;8.50;99.90;;;;;;5073585;28;20028;-71
2023/12/13 07:27:05;;;;;;;13.02;5.93;;;8.50;99.90;;;;;;5073520;28;20028;-72
2023/12/13 07:29:32;;;;;;;21.13;5.88;;;8.40;99.90;;;;;;5073552;28;20047;-72
2023/12/13 07:31:58;;;;;;;16.80;6.13;;;8.40;99.90;;;;;;5073066;28;20020;-72
2023/12/13 07:34:23;;;;;;;12.80;5.60;;;8.40;99.90;;;;;;5073198;28;20035;-71
2023/12/13 07:36:49;;;;;;;16.77;5.95;;;8.40;99.90;;;;;;5072931;28;20052;-72
2023/12/13 07:39:15;;;;;;;17.40;6.10;;;8.40;99.90;;;;;;5073446;28;20036;-72
2023/12/13 07:41:41;;;;;;;20.85;6.07;;;8.40;99.90;;;;;;5073471;28;20478;-71
2023/12/13 07:44:07;;;;;;;18.58;5.70;;;8.40;99.90;;;;;;5073430;28;20115;-72
2023/12/13 07:46:33;;;;;;;18.33;5.82;;;8.40;99.90;;;;;;5073004;28;20037;-72
2023/12/13 07:49:03;;;;;;;15.70;5.80;;;8.50;99.90;;;;;;5072897;28;20028;-72
2023/12/13 07:51:30;;;;;;;18.70;6.65;;;8.50;99.90;;;;;;5072941;28;20020;-71
2023/12/13 07:53:58;;;;;;;16.80;6.35;;;8.50;99.90;;;;;;5072931;28;20032;-72
2023/12/13 07:56:25;;;;;;;16.95;6.38;;;8.50;99.90;;;;;;5073031;28;20371;-71
2023/12/13 07:58:50;;;;;;;22.80;6.75;;;8.60;99.90;;;;;;5073233;28;20020;-72
2023/12/13 08:01:16;;;;;;;16.27;6.43;;;8.50;99.90;;;;;;5072689;28;20036;-71
2023/12/13 08:03:43;;;;;;;23.40;5.90;;;8.50;99.90;;;;;;5073291;28;20060;-72
2023/12/13 08:06:14;;;;;;;18.08;6.40;;;8.40;99.90;;;;;;5073255;28;20081;-72
2023/12/13 08:08:40;;;;;;;22.33;6.05;;;8.60;99.90;;;;;;5072901;28;20120;-71
2023/12/13 08:11:06;;;;;;;18.48;6.13;;;8.60;99.90;;;;;;5073001;28;20056;-71
2023/12/13 08:13:33;;;;;;;15.93;5.68;;;8.60;99.90;;;;;;5072293;28;20074;-71
2023/12/13 08:15:58;;;;;;;15.45;5.65;;;8.60;99.90;;;;;;5072559;28;20033;-71
2023/12/13 08:18:24;;;;;;;19.83;5.65;;;8.60;99.90;;;;;;5073054;28;20024;-71
2023/12/13 08:20:49;;;;;;;20.40;6.05;;;8.60;99.90;;;;;;5072818;28;20085;-70
2023/12/13 08:23:15;;;;;;;18.92;6.18;;;8.70;99.90;;;;;;5072829;28;20032;-69
2023/12/13 08:25:41;;;;;;;19.27;5.93;;;8.70;99.90;;;;;;5073033;28;20410;-69
2023/12/13 08:28:08;;;;;;;15.63;5.75;;;8.70;99.90;;;;;;5072662;28;20082;-69
2023/12/13 08:30:34;;;;;;;15.75;6.18;;;8.70;99.90;;;;;;5073023;28;20017;-70
2023/12/13 08:33:00;;;;;;;15.77;5.70;;;8.80;99.90;;;;;;5072763;28;20499;-70
2023/12/13 08:35:26;;;;;;;17.80;6.25;;;8.80;99.90;;;;;;5072316;28;20028;-70
2023/12/13 08:37:52;;;;;;;16.17;5.57;;;8.80;99.90;;;;;;5090552;28;20059;-69
2023/12/13 08:40:17;;;;;;;17.05;6.72;;;8.80;99.90;;;;;;5093108;28;20114;-68
2023/12/13 08:42:43;;;;;;;19.88;7.13;;;8.80;99.90;;;;;;5093055;28;20089;-70
2023/12/13 08:45:10;;;;;;;14.02;7.32;;;8.80;99.90;;;;;;5093097;28;20115;-70
2023/12/13 08:47:36;;;;;;;22.88;9.15;;;8.90;99.90;;;;;;5092815;28;20028;-70
2023/12/13 08:50:02;;;;;;;20.88;9.25;;;8.80;99.90;;;;;;5093088;28;20035;-69
2023/12/13 08:52:28;;;;;;;22.73;7.80;;;8.80;99.90;;;;;;5092947;28;20473;-69
2023/12/13 08:54:54;;;;;;;24.77;8.02;;;8.80;99.90;;;;;;5092955;28;20037;-70
2023/12/13 08:57:19;;;;;;;19.95;8.38;;;8.80;99.90;;;;;;5093578;28;20051;-70
2023/12/13 08:59:45;;;;;;;21.83;9.70;;;8.80;99.90;;;;;;5096452;28;20481;-69
2023/12/13 09:02:10;;;;;;;17.88;7.93;;;9.00;99.90;;;;;;5096513;28;20028;-69
2023/12/13 09:04:36;;;;;;;21.23;7.85;;;9.10;99.90;;;;;;5096754;28;20032;-69
2023/12/13 09:07:01;;;;;;;15.38;7.20;;;9.20;99.90;;;;;;5096427;28;20032;-69
2023/12/13 09:09:27;;;;;;;19.40;7.20;;;9.30;99.90;;;;;;5096394;28;20024;-70
2023/12/13 09:11:52;;;;;;;22.40;8.90;;;9.30;99.90;;;;;;5096176;28;20482;-70
2023/12/13 09:14:18;;;;;;;21.63;9.65;;;9.30;99.90;;;;;;5096268;28;20482;-70
2023/12/13 09:16:43;;;;;;;19.95;9.43;;;9.40;99.90;;;;;;5096234;28;20077;-70
2023/12/13 09:19:09;;;;;;;24.67;9.23;;;9.40;99.90;;;;;;5096142;28;20024;-70
2023/12/13 09:21:34;;;;;;;21.05;8.57;;;9.50;99.90;;;;;;5096092;28;20501;-69
2023/12/13 09:24:00;;;;;;;26.38;9.48;;;9.50;99.90;;;;;;5095959;28;20043;-70
2023/12/13 09:26:26;;;;;;;22.23;8.60;;;9.40;99.90;;;;;;5096056;28;20027;-69
2023/12/13 09:28:55;;;;;;;16.15;7.65;;;9.40;99.90;;;;;;5096006;28;20386;-69
2023/12/13 09:31:21;;;;;;;15.50;7.10;;;9.50;99.90;;;;;;5095486;28;20024;-69
2023/12/13 09:33:47;;;;;;;15.18;6.50;;;9.60;99.90;;;;;;5095881;28;20021;-68
2023/12/13 09:36:12;;;;;;;15.15;6.30;;;9.60;99.90;;;;;;5095692;28;20032;-69
2023/12/13 09:38:38;;;;;;;21.02;6.55;;;9.60;99.90;;;;;;5095758;28;20036;-68
2023/12/13 09:41:05;;;;;;;14.52;5.30;;;9.60;99.90;;;;;;5095856;28;20114;-69
2023/12/13 09:43:31;;;;;;;17.83;6.78;;;9.70;99.90;;;;;;5085456;28;20025;-69
2023/12/13 09:45:58;;;;;;;13.15;5.20;;;9.60;99.90;;;;;;5085260;28;20390;-68
2023/12/13 09:48:24;;;;;;;14.75;6.03;;;9.60;99.90;;;;;;5074621;28;20502;-69
2023/12/13 09:50:53;;;;;;;15.32;5.50;;;9.50;99.90;;;;;;5075218;28;20020;-68
2023/12/13 09:53:20;;;;;;;20.02;6.43;;;9.50;99.90;;;;;;5074994;28;20115;-68
2023/12/13 09:55:47;;;;;;;16.92;5.60;;;9.60;99.90;;;;;;5074996;28;20029;-69
2023/12/13 09:58:13;;;;;;;18.33;6.18;;;9.70;99.90;;;;;;5075090;28;20071;-68
2023/12/13 10:00:38;;;;;;;20.27;6.40;;;9.80;99.90;;;;;;5075066;28;20033;-70
2023/12/13 10:03:05;;;;;;;20.23;6.70;;;9.80;99.90;;;;;;5074933;28;20032;-70
2023/12/13 10:05:32;;;;;;;16.10;6.57;;;9.90;99.90;;;;;;5074452;28;20024;-70
2023/12/13 10:08:02;;;;;;;17.52;5.65;;;10.00;99.90;;;;;;5074343;28;20032;-70
2023/12/13 10:10:31;;;;;;;13.90;4.78;;;10.00;99.90;;;;;;5074763;28;20492;-70
2023/12/13 10:12:59;;;;;;;10.35;3.90;;;10.10;99.90;;;;;;5074839;28;20029;-70
2023/12/13 10:15:31;;;;;;;12.75;4.28;;;10.00;99.90;;;;;;5074808;28;20043;-70
2023/12/13 10:17:58;;;;;;;9.55;3.75;;;9.90;99.90;;;;;;5074756;28;20158;-70
2023/12/13 10:20:24;;;;;;;12.77;3.95;;;9.80;99.90;;;;;;5074659;28;20436;-70
2023/12/13 10:22:50;;;;;;;12.82;3.58;;;9.70;99.90;;;;;;5074620;28;20479;-70
2023/12/13 10:25:19;;;;;;;11.50;3.42;;;9.60;99.90;;;;;;5074513;28;20020;-71
2023/12/13 10:27:44;;;;;;;10.60;3.70;;;9.60;99.90;;;;;;5074475;28;20024;-70
2023/12/13 10:30:11;;;;;;;9.93;3.78;;;9.70;99.90;;;;;;5073914;28;20020;-70
2023/12/13 10:32:36;;;;;;;10.07;4.47;;;9.80;99.90;;;;;;5074201;28;20020;-71
2023/12/13 10:35:04;;;;;;;16.02;3.72;;;10.00;99.90;;;;;;5074458;28;20043;-69
2023/12/13 10:37:33;;;;;;;13.10;4.30;;;10.20;99.90;;;;;;5080797;28;20131;-69
2023/12/13 10:39:59;;;;;;;11.05;4.22;;;10.30;99.90;;;;;;5094585;28;20100;-69
2023/12/13 10:42:26;;;;;;;11.80;3.92;;;10.50;99.90;;;;;;5094063;28;20469;-69
2023/12/13 10:44:52;;;;;;;12.95;4.30;;;10.50;99.90;;;;;;5094502;28;20028;-70
2023/12/13 10:47:23;;;;;;;13.90;3.13;;;10.20;99.90;;;;;;5094191;28;20481;-69
2023/12/13 10:49:52;;;;;;;9.73;3.58;;;10.30;99.90;;;;;;5094204;28;20338;-71
2023/12/13 10:52:20;;;;;;;14.20;4.13;;;10.40;99.90;;;;;;5093966;28;20600;-69
2023/12/13 10:54:48;;;;;;;15.82;4.50;;;10.60;99.90;;;;;;5094264;28;20039;-71
2023/12/13 10:57:14;;;;;;;13.10;4.18;;;10.70;99.90;;;;;;5094286;28;20028;-70
2023/12/13 10:59:41;;;;;;;8.48;2.97;;;10.70;99.90;;;;;;5094265;28;20035;-69
2023/12/13 11:02:09;;;;;;;13.75;3.67;;;10.50;99.90;;;;;;5094283;28;20366;-70
2023/12/13 11:04:37;;;;;;;11.30;3.85;;;10.50;99.90;;;;;;5094147;28;20062;-70
2023/12/13 11:07:04;;;;;;;9.52;3.55;;;10.50;99.90;;;;;;5093804;28;20078;-68
2023/12/13 11:09:29;;;;;;;9.82;3.45;;;10.70;99.90;;;;;;5093988;28;20107;-69
2023/12/13 11:11:59;;;;;;;11.20;3.50;;;10.80;99.90;;;;;;5094239;28;20449;-68
2023/12/13 11:14:26;;;;;;;8.23;2.75;;;10.80;99.90;;;;;;5093057;28;20027;-69
2023/12/13 11:16:53;;;;;;;10.40;3.08;;;10.60;99.90;;;;;;5093909;28;20127;-69
2023/12/13 11:19:22;;;;;;;9.65;3.63;;;10.70;99.90;;;;;;5093857;28;20393;-69
2023/12/13 11:21:49;;;;;;;10.82;3.70;;;10.60;99.90;;;;;;5093474;28;20024;-69
2023/12/13 11:24:19;;;;;;;14.60;3.38;;;;;;;;;;5093461;28;20028;-69
2023/12/13 11:26:50;;;;;;;8.07;3.00;;;;;;;;;;5093580;28;20481;-69
2023/12/13 11:29:20;;;;;;;14.98;3.85;;;;;;;;;;5093715;28;20032;-69
2023/12/13 11:32:04;;;;;;;14.75;3.22;;;10.70;99.90;;;;;;5093734;28;20093;-69
2023/12/13 11:34:34;;;;;;;7.05;3.10;;;10.80;99.90;;;;;;5093621;28;20048;-69
2023/12/13 11:37:02;;;;;;;13.93;3.45;;;10.90;99.90;;;;;;5093443;28;20476;-69
2023/12/13 11:39:29;;;;;;;8.20;2.90;;;10.90;99.90;;;;;;5093657;28;20056;-69
2023/12/13 11:41:55;;;;;;;9.05;3.40;;;11.00;99.90;;;;;;5093152;28;20468;-68
2023/12/13 11:44:21;;;;;;;12.90;3.28;;;10.90;99.90;;;;;;5093158;28;20115;-67
2023/12/13 11:46:55;;;;;;;15.85;3.45;;;10.90;99.90;;;;;;5090161;28;20032;-68
2023/12/13 11:49:21;;;;;;;10.13;2.83;;;10.80;99.90;;;;;;5093603;28;20051;-68
2023/12/13 11:51:47;;;;;;;11.80;3.00;;;10.80;99.90;;;;;;5093478;28;20031;-69
2023/12/13 11:54:13;;;;;;;18.88;4.85;;;10.80;99.90;;;;;;5084156;28;20093;-71
2023/12/13 11:56:41;;;;;;;13.13;3.63;;;10.70;99.90;;;;;;5075655;28;20402;-72
2023/12/13 11:59:06;;;;;;;8.75;3.60;;;10.70;99.90;;;;;;5073265;28;20028;-69
2023/12/13 12:01:32;;;;;;;19.70;3.97;;;10.80;99.90;;;;;;5073123;28;20435;-72
2023/12/13 12:03:58;;;;;;;8.57;3.40;;;10.90;99.90;;;;;;5073060;28;20029;-73
2023/12/13 12:06:23;;;;;;;14.32;3.65;;;11.00;99.90;;;;;;5092001;28;20024;-72
2023/12/13 12:08:49;;;;;;;13.75;3.00;;;11.00;99.90;;;;;;5092646;28;20066;-72
2023/12/13 12:11:14;;;;;;;16.85;3.38;;;10.90;99.90;;;;;;5093340;28;20081;-72
2023/12/13 12:13:41;;;;;;;9.65;3.13;;;10.80;99.90;;;;;;5093234;28;20032;-72
2023/12/13 12:16:08;;;;;;;12.95;3.47;;;10.80;99.90;;;;;;5093464;28;20024;-72
2023/12/13 12:18:35;;;;;;;13.35;3.88;;;10.70;99.90;;;;;;5093554;28;20028;-72
2023/12/13 12:21:00;;;;;;;10.65;3.38;;;10.70;99.90;;;;;;5093125;28;20469;-72
2023/12/13 12:23:29;;;;;;;10.38;3.30;;;10.70;99.90;;;;;;5093171;28;20031;-73
2023/12/13 12:25:55;;;;;;;12.40;3.47;;;10.90;99.90;;;;;;5093194;28;20032;-71
2023/12/13 12:28:20;;;;;;;13.32;3.70;;;10.90;99.90;;;;;;5092566;28;20548;-72
2023/12/13 12:30:46;;;;;;;11.90;3.92;;;;;;;;;;5092992;28;20032;-72
2023/12/13 12:33:13;;;;;;;13.63;4.47;;;;;;;;;;5096424;28;20078;-73
2023/12/13 12:35:40;;;;;;;8.95;3.50;;;;;;;;;;5097065;28;20060;-73
2023/12/13 12:38:08;;;;;;;15.27;3.72;;;;;;;;;;5096516;28;20044;-75
2023/12/13 12:40:34;;;;;;;14.10;3.42;;;;;;;;;;5096683;28;20119;-74
2023/12/13 12:43:00;;;;;;;10.55;3.63;;;;;;;;;;5096356;28;20110;-73
2023/12/13 12:45:28;;;;;;;10.30;3.15;;;;;;;;;;5096387;28;20058;-74